Kamay, Texas
Current Conditions -  °F | °C
As of 10:15 PM on Wednesday 17 Dec 2014 (Local Time) from KCWC Reporting Station
Overcast Overcast  
Wind Chill: 32°   Ceiling: 400
Heat Index: 40°   Visibility: 10mi
Dew Point: 40°   Wind: 15mph
Humidity: 99%   Direction: 140°SE
Pressure: 30.12"   Gusts: NA
Location:  33.86°N, 98.81°W
Report Text: KCWC 180415Z AUTO 14013KT 10SM BKN004 OVC037 05/05 A3012 RMK AO2 T00470045
Loading
Personal Weather Stations






























Interactive Weather Map New forecast layout! Learn more

10-Day Weather Forecast

Advertisements
Track Severe Weather on mobile